Tecumseh, Nebraska
Current Conditions -  °F | °C
As of 8:55 PM on Wednesday 22 Oct 2014 (Local Time) from KAFK Reporting Station
Overcast Overcast  
Wind Chill: 65°   Ceiling: 7000
Heat Index: 65°   Visibility: 10mi
Dew Point: 54°   Wind: 12mph
Humidity: 66%   Direction: 170°S
Pressure: 30.04"   Gusts: 18mph
Location:  40.37°N, 96.2°W
Report Text: KAFK 230155Z AUTO 17010G16KT 10SM SCT055 BKN070 OVC085 19/12 A3004 RMK AO2 P0001 T01860121
Loading
Personal Weather Stations






























Interactive Weather Map
Tropical Storm Tracking
New forecast layout! Learn more

10-Day Weather Forecast

Advertisements
Track Severe Weather on mobile